createdAt,value
2022-10-26T00:01:27.375Z,16.30
2022-10-26T00:03:57.738Z,16.40
2022-10-26T00:06:28.985Z,16.40
2022-10-26T00:08:59.438Z,16.30
2022-10-26T00:11:27.938Z,16.40
2022-10-26T00:13:56.419Z,16.30
2022-10-26T00:16:27.084Z,16.30
2022-10-26T00:18:55.943Z,16.20
2022-10-26T00:21:24.426Z,16.20
2022-10-26T00:23:52.857Z,16.10
2022-10-26T00:26:22.684Z,16.00
2022-10-26T00:28:53.751Z,16.00
2022-10-26T00:31:22.229Z,16.00
2022-10-26T00:33:54.910Z,16.10
2022-10-26T00:36:24.175Z,16.10
2022-10-26T00:38:53.197Z,16.10
2022-10-26T00:41:25.302Z,16.00
2022-10-26T00:43:54.341Z,15.90
2022-10-26T00:46:25.596Z,15.70
2022-10-26T00:48:57.115Z,15.60
2022-10-26T00:51:32.927Z,15.60
2022-10-26T00:54:03.287Z,15.70
2022-10-26T00:56:34.180Z,15.70
2022-10-26T00:59:04.745Z,15.80
2022-10-26T01:01:35.294Z,15.80
2022-10-26T01:04:03.912Z,15.60
2022-10-26T01:06:34.347Z,15.60
2022-10-26T01:09:02.870Z,15.60
2022-10-26T01:11:32.873Z,15.50
2022-10-26T01:14:02.751Z,15.50
2022-10-26T01:16:48.032Z,15.40
2022-10-26T01:19:43.583Z,15.40
2022-10-26T01:22:18.666Z,15.40
2022-10-26T01:25:01.551Z,15.40
2022-10-26T01:27:35.352Z,15.50
2022-10-26T01:30:28.128Z,15.60
2022-10-26T01:33:23.540Z,15.60
2022-10-26T01:35:57.642Z,15.70
2022-10-26T01:38:31.852Z,15.70
2022-10-26T01:41:08.943Z,15.60
2022-10-26T01:43:41.154Z,15.50
2022-10-26T01:46:12.802Z,15.50
2022-10-26T01:48:43.424Z,15.50
2022-10-26T01:51:12.761Z,15.50
2022-10-26T01:53:46.909Z,15.60
2022-10-26T01:56:20.853Z,15.60
2022-10-26T01:59:14.863Z,15.60
2022-10-26T02:02:13.078Z,15.60
2022-10-26T02:04:54.049Z,15.70
2022-10-26T02:07:32.473Z,15.70
2022-10-26T02:10:09.795Z,15.70
2022-10-26T02:12:46.634Z,15.70
2022-10-26T02:15:21.952Z,15.60
2022-10-26T02:17:57.588Z,15.60
2022-10-26T02:20:29.396Z,15.60
2022-10-26T02:22:59.373Z,15.60
2022-10-26T02:25:30.653Z,15.60
2022-10-26T02:28:03.986Z,15.50
2022-10-26T02:30:33.696Z,15.50
2022-10-26T02:33:05.937Z,15.50
2022-10-26T02:35:39.100Z,15.40
2022-10-26T02:38:12.148Z,15.50
2022-10-26T02:40:41.137Z,15.50
2022-10-26T02:43:14.029Z,15.50
2022-10-26T02:45:47.654Z,15.50
2022-10-26T02:48:18.090Z,15.50
2022-10-26T02:50:54.841Z,15.40
2022-10-26T02:53:32.029Z,15.40
2022-10-26T02:56:05.363Z,15.30
2022-10-26T02:58:43.129Z,15.40
2022-10-26T03:01:11.741Z,15.40
2022-10-26T03:03:42.601Z,15.40
2022-10-26T03:06:11.122Z,15.40
2022-10-26T03:08:39.553Z,15.40
2022-10-26T03:11:08.093Z,15.40
2022-10-26T03:13:36.510Z,15.40
2022-10-26T03:16:04.970Z,15.40
2022-10-26T03:18:33.394Z,15.20
2022-10-26T03:21:03.312Z,15.20
2022-10-26T03:23:31.745Z,15.20
2022-10-26T03:26:00.924Z,15.20
2022-10-26T03:28:29.343Z,15.20
2022-10-26T03:30:57.806Z,15.20
2022-10-26T03:33:28.049Z,15.20
2022-10-26T03:35:57.801Z,15.20
2022-10-26T03:38:27.656Z,15.20
2022-10-26T03:40:56.139Z,15.10
2022-10-26T03:43:24.594Z,15.10
2022-10-26T03:45:53.074Z,15.20
2022-10-26T03:48:21.549Z,15.20
2022-10-26T03:50:50.797Z,15.20
2022-10-26T03:53:19.232Z,15.20
2022-10-26T03:55:49.357Z,15.20
2022-10-26T03:58:17.886Z,15.10
2022-10-26T04:00:46.352Z,15.20
2022-10-26T04:03:14.775Z,15.10
2022-10-26T04:05:43.208Z,15.10
2022-10-26T04:08:11.830Z,15.20
2022-10-26T04:10:40.229Z,15.20
2022-10-26T04:13:11.185Z,15.00
2022-10-26T04:15:39.883Z,14.90
2022-10-26T04:18:08.316Z,14.90
2022-10-26T04:20:39.091Z,14.90
2022-10-26T04:23:09.162Z,15.00
2022-10-26T04:25:37.781Z,15.10
2022-10-26T04:28:06.903Z,15.10
2022-10-26T04:30:37.485Z,15.10
2022-10-26T04:33:07.096Z,15.00
2022-10-26T04:35:35.851Z,14.90
2022-10-26T04:38:06.155Z,14.90
2022-10-26T04:40:36.078Z,14.90
2022-10-26T04:43:04.489Z,14.90
2022-10-26T04:45:33.004Z,14.80
2022-10-26T04:48:05.062Z,14.80
2022-10-26T04:50:34.145Z,14.90
2022-10-26T04:53:04.930Z,14.80
2022-10-26T04:55:33.509Z,14.90
2022-10-26T04:58:02.377Z,14.80
2022-10-26T05:00:32.969Z,14.80
2022-10-26T05:03:03.765Z,14.80
2022-10-26T05:05:35.087Z,14.90
2022-10-26T05:08:03.577Z,14.80
2022-10-26T05:10:32.057Z,14.70
2022-10-26T05:13:02.149Z,14.80
2022-10-26T05:15:31.255Z,14.70
2022-10-26T05:18:02.883Z,14.80
2022-10-26T05:20:34.960Z,14.90
2022-10-26T05:23:04.996Z,14.90
2022-10-26T05:25:35.778Z,14.90
2022-10-26T05:28:06.517Z,14.90
2022-10-26T05:30:35.219Z,14.90
2022-10-26T05:33:04.244Z,14.90
2022-10-26T05:35:34.793Z,14.90
2022-10-26T05:38:08.862Z,14.90
2022-10-26T05:40:37.817Z,15.00
2022-10-26T05:43:06.238Z,14.90
2022-10-26T05:45:34.743Z,15.00
2022-10-26T05:48:03.382Z,15.00
2022-10-26T05:50:33.435Z,15.10
2022-10-26T05:53:01.906Z,15.20
2022-10-26T05:55:31.528Z,15.30
2022-10-26T05:58:00.549Z,15.30
2022-10-26T06:00:30.479Z,15.40
2022-10-26T06:03:23.838Z,15.50
2022-10-26T06:05:56.629Z,15.50
2022-10-26T06:08:26.861Z,15.60
2022-10-26T06:10:59.463Z,15.60
2022-10-26T06:13:28.459Z,15.60
2022-10-26T06:16:10.983Z,15.70
2022-10-26T06:18:51.127Z,15.80
2022-10-26T06:21:34.138Z,15.80
2022-10-26T06:24:09.576Z,15.80
2022-10-26T06:26:45.369Z,15.90
2022-10-26T06:29:26.421Z,16.00
2022-10-26T06:31:55.056Z,16.10
2022-10-26T06:34:28.572Z,16.10
2022-10-26T06:37:01.944Z,16.20
2022-10-26T06:39:33.223Z,16.30
2022-10-26T06:42:02.184Z,16.30
2022-10-26T06:44:31.333Z,16.40
2022-10-26T06:47:07.101Z,16.40
2022-10-26T06:49:39.468Z,16.50
2022-10-26T06:52:17.162Z,16.60
2022-10-26T06:54:49.793Z,16.70
2022-10-26T06:57:20.335Z,16.80
2022-10-26T06:59:52.222Z,16.90
2022-10-26T07:02:21.114Z,17.00
2022-10-26T07:04:50.003Z,17.00
2022-10-26T07:07:22.489Z,17.10
2022-10-26T07:09:51.462Z,17.10
2022-10-26T07:12:20.065Z,17.30
2022-10-26T07:14:48.475Z,17.40
2022-10-26T07:17:17.145Z,17.50
2022-10-26T07:19:45.827Z,17.70
2022-10-26T07:22:14.310Z,17.60
2022-10-26T07:24:44.115Z,17.70
2022-10-26T07:27:12.539Z,17.80
2022-10-26T07:29:41.244Z,17.80
2022-10-26T07:32:10.075Z,17.90
2022-10-26T07:34:38.532Z,17.80
2022-10-26T07:37:07.387Z,17.90
2022-10-26T07:39:35.855Z,18.00
2022-10-26T07:42:05.834Z,18.10
2022-10-26T07:44:35.139Z,18.20
2022-10-26T07:47:03.585Z,18.30
2022-10-26T07:49:32.048Z,18.30
2022-10-26T07:52:00.482Z,18.30
2022-10-26T07:54:28.992Z,18.50
2022-10-26T07:56:58.128Z,18.60
2022-10-26T07:59:28.293Z,18.70
2022-10-26T08:01:56.786Z,18.80
2022-10-26T08:04:25.303Z,19.00
2022-10-26T08:06:53.756Z,19.00
2022-10-26T08:09:22.172Z,19.00
2022-10-26T08:11:50.607Z,19.10
2022-10-26T08:14:19.031Z,19.10
2022-10-26T08:16:52.605Z,19.20
2022-10-26T08:19:21.382Z,19.10
2022-10-26T08:21:49.813Z,19.20
2022-10-26T08:24:19.110Z,19.30
2022-10-26T08:26:47.566Z,19.40
2022-10-26T08:29:16.140Z,19.50
2022-10-26T08:31:44.584Z,19.60
2022-10-26T08:34:14.459Z,19.70
2022-10-26T08:36:42.895Z,19.80
2022-10-26T08:39:11.297Z,19.70
2022-10-26T08:41:43.483Z,19.70
2022-10-26T08:44:26.250Z,19.70
2022-10-26T08:46:59.658Z,19.80
2022-10-26T08:49:33.960Z,19.70
2022-10-26T08:52:03.994Z,19.80
2022-10-26T08:54:38.566Z,19.80
2022-10-26T08:57:17.801Z,19.70
2022-10-26T08:59:52.354Z,19.90
2022-10-26T09:02:21.757Z,19.90
2022-10-26T09:04:52.411Z,19.90
2022-10-26T09:07:36.955Z,19.90
2022-10-26T09:10:18.679Z,19.90
2022-10-26T09:12:52.766Z,19.80
2022-10-26T09:15:33.830Z,19.80
2022-10-26T09:18:12.667Z,20.00
2022-10-26T09:21:12.626Z,20.00
2022-10-26T09:23:58.535Z,20.10
2022-10-26T09:26:33.609Z,20.00
2022-10-26T09:29:06.137Z,20.10
2022-10-26T09:31:43.266Z,20.10
2022-10-26T09:34:22.846Z,20.10
2022-10-26T09:36:56.250Z,20.20
2022-10-26T09:39:34.953Z,20.30
2022-10-26T09:42:13.573Z,20.40
2022-10-26T09:44:46.225Z,20.50
2022-10-26T09:47:22.580Z,20.60
2022-10-26T09:49:57.111Z,20.60
2022-10-26T09:52:27.007Z,20.80
2022-10-26T09:54:55.411Z,20.90
2022-10-26T09:57:25.129Z,20.90
2022-10-26T09:59:55.810Z,21.00
2022-10-26T10:02:38.443Z,21.10
2022-10-26T10:05:39.206Z,21.20
2022-10-26T10:08:18.187Z,21.20
2022-10-26T10:11:01.749Z,21.30
2022-10-26T10:13:32.888Z,21.40
2022-10-26T10:16:06.629Z,21.50
2022-10-26T10:18:38.602Z,21.70
2022-10-26T10:21:08.890Z,21.90
2022-10-26T10:23:49.846Z,22.00
2022-10-26T10:26:18.579Z,22.00
2022-10-26T10:28:58.500Z,22.00
2022-10-26T10:31:31.122Z,22.10
2022-10-26T10:34:00.074Z,22.20
2022-10-26T10:36:31.827Z,22.20
2022-10-26T10:39:02.616Z,22.40
2022-10-26T10:41:36.555Z,22.40
2022-10-26T10:44:12.346Z,22.50
2022-10-26T10:46:41.175Z,22.70
2022-10-26T10:49:22.833Z,22.70
2022-10-26T10:51:51.801Z,22.90
2022-10-26T10:54:28.447Z,22.90
2022-10-26T10:57:04.945Z,23.00
2022-10-26T10:59:53.957Z,23.10
2022-10-26T11:02:59.007Z,23.10
2022-10-26T11:05:43.093Z,23.20
2022-10-26T11:08:18.405Z,23.20
2022-10-26T11:10:53.900Z,23.30
2022-10-26T11:13:27.243Z,23.60
2022-10-26T11:16:03.123Z,23.60
2022-10-26T11:18:36.345Z,23.60
2022-10-26T11:21:15.512Z,23.60
2022-10-26T11:23:50.889Z,23.70
2022-10-26T11:26:26.486Z,23.60
2022-10-26T11:29:00.381Z,23.70
2022-10-26T11:31:35.196Z,23.60
2022-10-26T11:34:15.242Z,23.80
2022-10-26T11:36:47.652Z,23.90
2022-10-26T11:39:24.031Z,24.00
2022-10-26T11:41:59.461Z,24.20
2022-10-26T11:44:34.589Z,24.30
2022-10-26T11:47:08.513Z,24.40
2022-10-26T11:49:43.591Z,24.30
2022-10-26T11:52:18.948Z,24.00
2022-10-26T11:54:52.302Z,24.00
2022-10-26T11:57:24.085Z,23.90
2022-10-26T11:59:56.022Z,24.00
2022-10-26T12:02:26.252Z,24.10
2022-10-26T12:05:03.924Z,24.10
2022-10-26T12:07:34.555Z,24.50
2022-10-26T12:10:04.972Z,24.80
2022-10-26T12:12:39.780Z,24.80
2022-10-26T12:15:20.352Z,24.90
2022-10-26T12:17:55.201Z,24.80
2022-10-26T12:21:02.595Z,25.00
2022-10-26T12:23:51.235Z,25.50
2022-10-26T12:29:46.483Z,27.10
2022-10-26T12:32:51.771Z,28.10
2022-10-26T12:35:44.050Z,28.60
2022-10-26T12:38:50.117Z,28.70
2022-10-26T12:41:26.278Z,30.10
2022-10-26T12:43:59.753Z,30.90
2022-10-26T12:46:45.631Z,31.30
2022-10-26T12:49:59.077Z,32.10
2022-10-26T12:52:43.895Z,31.70
2022-10-26T12:55:48.256Z,31.60
2022-10-26T12:58:52.960Z,31.80
2022-10-26T13:01:51.752Z,32.30
2022-10-26T13:04:55.932Z,31.80
2022-10-26T13:10:01.693Z,29.50
2022-10-26T13:12:39.514Z,28.10
2022-10-26T13:15:21.810Z,27.00
2022-10-26T13:18:02.243Z,26.40
2022-10-26T13:20:32.466Z,26.40
2022-10-26T13:25:32.716Z,25.40
2022-10-26T13:28:05.367Z,24.90
2022-10-26T13:30:45.510Z,24.20
2022-10-26T13:33:33.957Z,23.90
2022-10-26T13:36:05.942Z,23.90
2022-10-26T13:38:38.144Z,23.80
2022-10-26T13:41:24.151Z,23.70
2022-10-26T13:43:54.180Z,23.60
2022-10-26T13:46:29.379Z,23.40
2022-10-26T13:49:07.267Z,23.40
2022-10-26T13:51:42.648Z,23.20
2022-10-26T13:54:24.163Z,23.10
2022-10-26T13:57:14.913Z,23.20
2022-10-26T13:59:46.992Z,23.20
2022-10-26T14:02:19.681Z,23.10
2022-10-26T14:04:54.155Z,23.00
2022-10-26T14:07:25.621Z,22.90
2022-10-26T14:09:56.306Z,22.80
2022-10-26T14:12:28.503Z,22.70
2022-10-26T14:15:07.110Z,22.70
2022-10-26T14:17:36.221Z,22.50
2022-10-26T14:20:07.024Z,22.40
2022-10-26T14:22:35.791Z,22.30
2022-10-26T14:25:04.539Z,22.20
2022-10-26T14:27:39.377Z,22.20
2022-10-26T14:30:23.760Z,22.10
2022-10-26T14:32:53.220Z,22.10
2022-10-26T14:35:27.190Z,22.00
2022-10-26T14:37:59.384Z,21.90
2022-10-26T14:40:30.759Z,21.90
2022-10-26T14:43:01.959Z,21.90
2022-10-26T14:45:49.203Z,21.80
2022-10-26T14:48:26.208Z,21.70
2022-10-26T14:51:18.641Z,21.70
2022-10-26T14:53:51.101Z,21.70
2022-10-26T14:56:28.848Z,21.60
2022-10-26T14:58:59.579Z,21.60
2022-10-26T15:01:36.245Z,21.60
2022-10-26T15:04:08.226Z,21.60
2022-10-26T15:06:44.918Z,21.50
2022-10-26T15:09:41.113Z,21.50
2022-10-26T15:12:24.739Z,21.40
2022-10-26T15:14:54.303Z,21.40
2022-10-26T15:17:27.742Z,21.40
2022-10-26T15:19:58.062Z,21.30
2022-10-26T15:22:32.117Z,21.20
2022-10-26T15:25:03.892Z,21.10
2022-10-26T15:27:32.841Z,21.10
2022-10-26T15:30:19.304Z,21.10
2022-10-26T15:32:48.695Z,21.00
2022-10-26T15:35:28.443Z,20.90
2022-10-26T15:38:01.254Z,20.80
2022-10-26T15:40:31.313Z,20.70
2022-10-26T15:43:02.051Z,20.60
2022-10-26T15:45:35.115Z,20.60
2022-10-26T15:48:20.734Z,20.60
2022-10-26T15:50:50.220Z,20.60
2022-10-26T15:53:23.713Z,20.50
2022-10-26T15:55:55.036Z,20.50
2022-10-26T15:58:24.178Z,20.40
2022-10-26T16:00:53.194Z,20.60
2022-10-26T16:03:24.514Z,20.70
2022-10-26T16:05:58.139Z,20.70
2022-10-26T16:08:30.824Z,20.60
2022-10-26T16:10:59.772Z,20.50
2022-10-26T16:13:30.768Z,20.40
2022-10-26T16:16:00.061Z,20.30
2022-10-26T16:18:28.727Z,20.20
2022-10-26T16:20:57.443Z,20.10
2022-10-26T16:23:27.505Z,20.00
2022-10-26T16:25:56.504Z,20.00
2022-10-26T16:28:25.187Z,20.00
2022-10-26T16:30:59.634Z,20.10
2022-10-26T16:33:30.037Z,20.00
2022-10-26T16:35:59.923Z,19.90
2022-10-26T16:38:31.693Z,19.90
2022-10-26T16:41:03.959Z,19.80
2022-10-26T16:43:33.918Z,19.70
2022-10-26T16:46:06.166Z,19.60
2022-10-26T16:48:38.106Z,19.60
2022-10-26T16:51:08.947Z,19.70
2022-10-26T16:53:39.238Z,19.70
2022-10-26T16:56:10.867Z,19.60
2022-10-26T16:58:40.257Z,19.60
2022-10-26T17:01:10.831Z,19.60
2022-10-26T17:03:39.770Z,19.60
2022-10-26T17:06:09.392Z,19.50
2022-10-26T17:08:39.849Z,19.50
2022-10-26T17:11:10.453Z,19.40
2022-10-26T17:13:40.016Z,19.30
2022-10-26T17:16:11.594Z,19.30
2022-10-26T17:18:41.904Z,19.30
2022-10-26T17:21:11.445Z,19.10
2022-10-26T17:23:41.752Z,19.00
2022-10-26T17:26:12.335Z,19.00
2022-10-26T17:28:41.278Z,19.00
2022-10-26T17:31:12.471Z,18.80
2022-10-26T17:33:43.412Z,18.70
2022-10-26T17:36:13.933Z,18.80
2022-10-26T17:38:44.947Z,18.90
2022-10-26T17:41:15.855Z,18.90
2022-10-26T17:43:46.367Z,18.80
2022-10-26T17:46:17.323Z,18.80
2022-10-26T17:48:46.833Z,18.70
2022-10-26T17:51:17.211Z,18.70
2022-10-26T17:53:50.120Z,18.60
2022-10-26T17:56:21.388Z,18.40
2022-10-26T17:58:53.868Z,18.50
2022-10-26T18:01:23.102Z,18.50
2022-10-26T18:03:52.002Z,18.40
2022-10-26T18:06:21.201Z,18.40
2022-10-26T18:08:51.438Z,18.30
2022-10-26T18:11:26.898Z,18.30
2022-10-26T18:13:56.846Z,18.30
2022-10-26T18:16:26.782Z,18.20
2022-10-26T18:19:01.571Z,18.20
2022-10-26T18:21:32.774Z,18.30
2022-10-26T18:24:03.116Z,18.20
2022-10-26T18:26:32.582Z,18.10
2022-10-26T18:29:03.260Z,18.10
2022-10-26T18:31:34.874Z,18.10
2022-10-26T18:34:05.065Z,18.20
2022-10-26T18:36:34.159Z,18.10
2022-10-26T18:39:04.782Z,18.00
2022-10-26T18:41:33.729Z,18.20
2022-10-26T18:44:02.851Z,18.20
2022-10-26T18:46:33.970Z,18.30
2022-10-26T18:49:02.816Z,18.20
2022-10-26T18:51:33.063Z,18.00
2022-10-26T18:54:03.984Z,18.10
2022-10-26T18:56:33.626Z,18.10
2022-10-26T18:59:02.854Z,18.00
2022-10-26T19:01:33.568Z,18.00
2022-10-26T19:04:04.371Z,17.90
2022-10-26T19:06:34.679Z,17.80
2022-10-26T19:09:06.354Z,17.70
2022-10-26T19:11:35.535Z,17.70
2022-10-26T19:14:04.338Z,17.70
2022-10-26T19:16:45.463Z,17.70
2022-10-26T19:19:15.061Z,17.70
2022-10-26T19:21:43.791Z,17.70
2022-10-26T19:24:16.666Z,17.70
2022-10-26T19:26:45.515Z,17.70
2022-10-26T19:29:16.741Z,17.70
2022-10-26T19:31:47.250Z,17.80
2022-10-26T19:34:17.561Z,17.80
2022-10-26T19:36:47.523Z,17.80
2022-10-26T19:39:18.652Z,17.70
2022-10-26T19:41:48.141Z,17.70
2022-10-26T19:44:17.954Z,17.70
2022-10-26T19:46:48.492Z,17.60
2022-10-26T19:49:18.501Z,17.60
2022-10-26T19:51:48.490Z,17.50
2022-10-26T19:54:18.705Z,17.50
2022-10-26T19:56:48.310Z,17.40
2022-10-26T19:59:17.110Z,17.40
2022-10-26T20:01:46.315Z,17.30
2022-10-26T20:04:15.140Z,17.40
2022-10-26T20:06:44.194Z,17.40
2022-10-26T20:09:13.158Z,17.30
2022-10-26T20:11:43.543Z,17.20
2022-10-26T20:14:14.232Z,17.20
2022-10-26T20:16:43.187Z,17.20
2022-10-26T20:19:11.958Z,17.30
2022-10-26T20:21:41.554Z,17.30
2022-10-26T20:24:10.675Z,17.30
2022-10-26T20:26:40.432Z,17.30
2022-10-26T20:29:11.296Z,17.30
2022-10-26T20:31:41.411Z,17.40
2022-10-26T20:34:10.186Z,17.30
2022-10-26T20:36:38.922Z,17.20
2022-10-26T20:39:08.191Z,17.10
2022-10-26T20:41:43.074Z,17.10
2022-10-26T20:44:21.623Z,17.10
2022-10-26T20:46:51.126Z,17.00
2022-10-26T20:49:20.422Z,16.90
2022-10-26T20:52:19.569Z,17.00
2022-10-26T20:54:52.755Z,17.00
2022-10-26T20:57:25.636Z,16.80
2022-10-26T20:59:59.296Z,16.90
2022-10-26T21:02:29.423Z,16.80
2022-10-26T21:04:58.161Z,16.70
2022-10-26T21:07:26.873Z,16.70
2022-10-26T21:09:55.668Z,16.80
2022-10-26T21:12:24.682Z,16.70
2022-10-26T21:14:53.397Z,16.80
2022-10-26T21:17:23.914Z,16.80
2022-10-26T21:19:52.701Z,16.80
2022-10-26T21:22:21.429Z,16.70
2022-10-26T21:24:50.154Z,16.60
2022-10-26T21:27:18.879Z,16.70
2022-10-26T21:29:47.590Z,16.70
2022-10-26T21:32:16.333Z,16.70
2022-10-26T21:34:46.491Z,16.70
2022-10-26T21:37:15.317Z,16.60
2022-10-26T21:39:44.058Z,16.60
2022-10-26T21:42:15.393Z,16.60
2022-10-26T21:44:44.013Z,16.60
2022-10-26T21:47:12.808Z,16.60
2022-10-26T21:52:16.502Z,16.40
2022-10-26T21:54:45.231Z,16.50
2022-10-26T21:57:13.810Z,16.50
2022-10-26T21:59:42.766Z,16.70
2022-10-26T22:02:11.428Z,16.60
2022-10-26T22:04:40.338Z,16.60
2022-10-26T22:07:08.951Z,16.60
2022-10-26T22:09:49.385Z,16.50
2022-10-26T22:12:27.573Z,16.50
2022-10-26T22:14:56.399Z,16.50
2022-10-26T22:17:25.161Z,16.50
2022-10-26T22:19:54.014Z,16.40
2022-10-26T22:22:22.664Z,16.50
2022-10-26T22:24:52.728Z,16.50
2022-10-26T22:27:21.774Z,16.50
2022-10-26T22:29:50.469Z,16.60
2022-10-26T22:32:19.208Z,16.60
2022-10-26T22:34:50.652Z,16.60
2022-10-26T22:37:19.507Z,16.50
2022-10-26T22:42:23.383Z,16.50
2022-10-26T22:44:52.382Z,16.40
2022-10-26T22:47:21.109Z,16.30
2022-10-26T22:49:49.836Z,16.30
2022-10-26T22:52:18.751Z,16.30
2022-10-26T22:54:47.484Z,16.20
2022-10-26T22:57:16.311Z,16.20
2022-10-26T22:59:46.486Z,16.10
2022-10-26T23:02:15.496Z,16.10
2022-10-26T23:04:44.390Z,16.00
2022-10-26T23:07:13.182Z,16.00
2022-10-26T23:09:42.010Z,16.00
2022-10-26T23:12:11.567Z,15.90
2022-10-26T23:14:40.551Z,15.90
2022-10-26T23:17:10.663Z,16.00
2022-10-26T23:19:39.403Z,16.00
2022-10-26T23:22:08.143Z,16.00
2022-10-26T23:24:36.868Z,16.00
2022-10-26T23:27:05.706Z,16.00
2022-10-26T23:29:34.601Z,16.00
2022-10-26T23:32:03.369Z,15.80
2022-10-26T23:34:33.539Z,15.90
2022-10-26T23:37:02.313Z,15.80
2022-10-26T23:39:31.018Z,15.90
2022-10-26T23:41:59.855Z,15.80
2022-10-26T23:44:28.650Z,15.80
2022-10-26T23:46:57.414Z,15.80
2022-10-26T23:49:26.035Z,15.80
2022-10-26T23:51:56.199Z,15.70
2022-10-26T23:54:24.851Z,15.80
2022-10-26T23:56:53.508Z,15.90
2022-10-26T23:59:22.733Z,15.80
